Lancaster, Iowa
Current Conditions -  °F | °C
As of 1:15 PM on Friday 24 Oct 2014 (Local Time) from KOOA Reporting Station
Haze Haze  
Wind Chill: 60°   Ceiling: 500
Heat Index: 60°   Visibility: 5mi
Dew Point: 59°   Wind: 15mph
Humidity: 98%   Direction: 180°S
Pressure: 29.97"   Gusts: NA
Location:  41.331°N, 92.1821°W
Report Text: KOOA 241815Z AUTO 18013KT 5SM BR OVC005 15/15 A2997 RMK AO2 T01540151
Loading
Personal Weather Stations






























Interactive Weather Map
Tropical Storm Tracking
New forecast layout! Learn more

10-Day Weather Forecast

Advertisements
Track Severe Weather on mobile